createdAt,value
2022-10-16T00:05:24.554Z,12.50
2022-10-16T00:15:28.097Z,12.40
2022-10-16T00:25:30.183Z,12.60
2022-10-16T00:35:33.566Z,12.90
2022-10-16T00:45:35.463Z,12.80
2022-10-16T00:55:42.412Z,12.60
2022-10-16T01:05:50.512Z,12.50
2022-10-16T01:15:57.105Z,12.30
2022-10-16T01:26:14.732Z,12.10
2022-10-16T01:36:22.091Z,12.00
2022-10-16T01:46:25.336Z,12.10
2022-10-16T01:56:29.480Z,12.00
2022-10-16T02:06:31.574Z,12.00
2022-10-16T02:16:40.915Z,12.30
2022-10-16T02:26:49.890Z,12.50
2022-10-16T02:36:54.085Z,12.60
2022-10-16T02:46:56.012Z,12.50
2022-10-16T02:56:59.309Z,12.40
2022-10-16T03:07:01.281Z,12.20
2022-10-16T03:17:04.590Z,12.10
2022-10-16T03:27:06.580Z,12.00
2022-10-16T03:37:09.895Z,12.00
2022-10-16T03:47:11.876Z,11.90
2022-10-16T03:57:15.154Z,11.80
2022-10-16T04:07:17.144Z,11.80
2022-10-16T04:17:20.463Z,11.70
2022-10-16T04:27:22.503Z,11.60
2022-10-16T04:37:27.101Z,11.50
2022-10-16T04:47:29.614Z,11.40
2022-10-16T04:57:33.090Z,11.30
2022-10-16T05:07:35.044Z,11.30
2022-10-16T05:17:42.402Z,11.20
2022-10-16T05:27:48.656Z,11.20
2022-10-16T05:37:51.963Z,11.20
2022-10-16T05:47:53.878Z,11.30
2022-10-16T05:57:57.253Z,11.20
2022-10-16T06:07:59.188Z,11.10
2022-10-16T06:18:02.479Z,11.00
2022-10-16T06:28:04.537Z,10.90
2022-10-16T06:38:07.822Z,10.90
2022-10-16T06:48:09.796Z,10.80
2022-10-16T06:58:13.127Z,10.80
2022-10-16T07:08:15.081Z,10.80
2022-10-16T07:18:18.404Z,10.90
2022-10-16T07:28:20.425Z,11.00
2022-10-16T07:38:23.909Z,11.20
2022-10-16T07:48:29.043Z,11.30
2022-10-16T08:09:35.652Z,11.90
2022-10-16T08:19:37.576Z,12.30
2022-10-16T08:29:40.932Z,13.10
2022-10-16T08:39:42.912Z,14.00
2022-10-16T08:49:56.986Z,14.40
2022-10-16T09:00:06.113Z,14.40
2022-10-16T09:10:24.716Z,15.90
2022-10-16T09:20:43.754Z,17.50
2022-10-16T09:30:48.177Z,18.80
2022-10-16T09:40:58.962Z,19.00
2022-10-16T09:51:17.291Z,18.90
2022-10-16T10:01:20.728Z,20.60
2022-10-16T10:11:42.939Z,20.90
2022-10-16T10:21:44.916Z,20.50
2022-10-16T10:31:55.241Z,21.30
2022-10-16T10:42:14.069Z,21.30
2022-10-16T10:52:42.634Z,20.40
2022-10-16T11:13:56.226Z,18.60
2022-10-16T11:35:32.574Z,18.00
2022-10-16T11:55:52.874Z,18.00
2022-10-16T12:27:28.199Z,17.80
2022-10-16T12:37:34.117Z,17.50
2022-10-16T12:47:50.154Z,17.20
2022-10-16T13:19:07.655Z,16.80
2022-10-16T13:40:53.847Z,16.80
2022-10-16T14:02:26.140Z,16.70
2022-10-16T14:22:46.822Z,16.60
2022-10-16T14:32:56.522Z,16.70
2022-10-16T14:43:00.864Z,16.40
2022-10-16T15:14:33.968Z,16.30
2022-10-16T15:24:35.929Z,16.20
2022-10-16T15:34:39.291Z,16.00
2022-10-16T15:44:41.204Z,15.90
2022-10-16T15:54:44.723Z,15.80
2022-10-16T16:04:46.657Z,15.70
2022-10-16T16:14:50.400Z,15.60
2022-10-16T16:35:25.896Z,15.30
2022-10-16T16:45:29.199Z,15.20
2022-10-16T16:55:31.240Z,15.00
2022-10-16T17:16:42.032Z,14.80
2022-10-16T17:26:46.415Z,14.80
2022-10-16T17:36:49.713Z,14.80
2022-10-16T17:57:09.871Z,14.60
2022-10-16T18:07:12.435Z,14.60
2022-10-16T18:17:15.801Z,14.60
2022-10-16T18:27:17.945Z,14.40
2022-10-16T18:37:21.701Z,14.40
2022-10-16T18:47:23.686Z,14.30
2022-10-16T18:57:29.707Z,14.30
2022-10-16T19:07:31.898Z,14.40
2022-10-16T19:17:35.506Z,14.40
2022-10-16T19:27:37.423Z,14.50
2022-10-16T19:37:40.730Z,14.50
2022-10-16T19:58:00.877Z,14.50
2022-10-16T20:08:02.846Z,14.60
2022-10-16T20:18:06.185Z,14.70
2022-10-16T20:28:10.763Z,14.70
2022-10-16T20:38:15.405Z,14.80
2022-10-16T20:48:17.510Z,14.90
2022-10-16T20:58:20.881Z,15.00
2022-10-16T21:08:22.803Z,15.00
2022-10-16T21:18:27.682Z,15.00
2022-10-16T21:28:31.168Z,15.20
2022-10-16T21:38:34.530Z,15.30
2022-10-16T21:48:36.761Z,15.30
2022-10-16T21:58:41.099Z,15.40
2022-10-16T22:08:43.827Z,15.40
2022-10-16T22:18:47.268Z,15.50
2022-10-16T22:28:49.207Z,15.70
2022-10-16T22:38:52.583Z,15.70
2022-10-16T22:48:56.011Z,15.80
2022-10-16T22:58:59.589Z,15.90
2022-10-16T23:09:02.321Z,16.00
2022-10-16T23:19:05.675Z,16.10
2022-10-16T23:29:07.795Z,16.30
2022-10-16T23:39:11.294Z,16.40
2022-10-16T23:49:13.338Z,16.50
2022-10-16T23:59:16.674Z,16.60
